Time;durP1;ratioP1;P1;durP2;ratioP2;P2;SDS_P1;SDS_P2;PMS_P1;PMS_P2;Temp;Humidity;BMP_temperature;BMP_pressure;BME280_temperature;BME280_humidity;BME280_pressure;Samples;Min_cycle;Max_cycle;Signal;HPM_P1;HPM_P2
2022/03/02 00:02:19;;;;;;;12.23;1.77;;;20.40;99.90;;;;;;4998103;28;20421;-66
2022/03/02 00:04:47;;;;;;;15.18;1.83;;;20.40;99.90;;;;;;4985471;28;20027;-66
2022/03/02 00:07:15;;;;;;;10.13;1.17;;;20.40;99.90;;;;;;4981666;28;20396;-66
2022/03/02 00:09:42;;;;;;;13.20;1.95;;;20.50;99.90;;;;;;4998273;28;20484;-66
2022/03/02 00:12:10;;;;;;;12.70;2.10;;;20.50;99.90;;;;;;4983998;28;20037;-66
2022/03/02 00:14:38;;;;;;;18.77;2.58;;;20.50;99.90;;;;;;4994440;28;20034;-66
2022/03/02 00:17:06;;;;;;;16.92;3.13;;;20.50;99.90;;;;;;4994981;28;20041;-66
2022/03/02 00:19:34;;;;;;;18.60;2.05;;;20.50;99.90;;;;;;4990623;28;20019;-66
2022/03/02 00:22:01;;;;;;;16.52;1.88;;;20.50;99.90;;;;;;4994816;28;20034;-66
2022/03/02 00:24:29;;;;;;;14.00;2.60;;;20.50;99.90;;;;;;4996947;28;20101;-66
2022/03/02 00:26:57;;;;;;;14.85;2.03;;;20.50;99.90;;;;;;4993562;28;20034;-65
2022/03/02 00:29:26;;;;;;;18.60;3.03;;;20.60;99.90;;;;;;4986876;28;20093;-66
2022/03/02 00:31:54;;;;;;;12.85;2.40;;;20.80;99.90;;;;;;4988545;28;20037;-66
2022/03/02 00:34:22;;;;;;;21.05;2.45;;;20.80;99.90;;;;;;4985168;28;20562;-66
2022/03/02 00:36:50;;;;;;;17.63;3.20;;;20.90;99.90;;;;;;4984802;28;20026;-66
2022/03/02 00:39:17;;;;;;;18.40;2.55;;;20.90;99.90;;;;;;4994975;28;20126;-65
2022/03/02 00:41:45;;;;;;;23.02;4.32;;;21.00;99.90;;;;;;4990365;28;20046;-66
2022/03/02 00:44:13;;;;;;;19.88;3.15;;;21.00;99.90;;;;;;4984915;28;20414;-65
2022/03/02 00:46:41;;;;;;;14.77;2.22;;;21.10;99.90;;;;;;4986998;28;20030;-65
2022/03/02 00:49:09;;;;;;;12.82;1.73;;;20.90;99.90;;;;;;4988372;28;20054;-65
2022/03/02 00:51:37;;;;;;;9.18;1.10;;;20.60;99.90;;;;;;4984980;28;20031;-66
2022/03/02 00:54:05;;;;;;;9.50;1.77;;;20.30;99.90;;;;;;4992241;28;20041;-66
2022/03/02 00:56:33;;;;;;;13.88;1.60;;;20.20;99.90;;;;;;4994509;28;20026;-66
2022/03/02 00:59:01;;;;;;;11.48;1.33;;;20.20;99.90;;;;;;4996117;28;20088;-66
2022/03/02 01:01:29;;;;;;;12.07;1.17;;;20.10;99.90;;;;;;4991045;28;20029;-66
2022/03/02 01:03:57;;;;;;;9.23;1.30;;;20.10;99.90;;;;;;4994180;28;20030;-66
2022/03/02 01:06:25;;;;;;;6.85;0.80;;;20.20;99.90;;;;;;4994594;28;20034;-66
2022/03/02 01:08:53;;;;;;;18.67;2.50;;;20.30;99.90;;;;;;4985138;28;20034;-65
2022/03/02 01:11:20;;;;;;;14.73;1.52;;;20.40;99.90;;;;;;4993157;28;20105;-66
2022/03/02 01:13:48;;;;;;;9.57;1.52;;;20.50;99.90;;;;;;4995885;28;20022;-66
2022/03/02 01:16:16;;;;;;;17.05;2.38;;;20.60;99.90;;;;;;4982945;28;20037;-66
2022/03/02 01:18:44;;;;;;;14.73;2.20;;;20.70;99.90;;;;;;4995178;28;20030;-66
2022/03/02 01:21:11;;;;;;;17.27;1.98;;;20.70;99.90;;;;;;4988054;28;20038;-66
2022/03/02 01:23:39;;;;;;;14.88;2.20;;;20.80;99.90;;;;;;4990882;28;20368;-66
2022/03/02 01:26:07;;;;;;;18.05;3.10;;;20.80;99.90;;;;;;4988599;28;20156;-66
2022/03/02 01:28:35;;;;;;;17.27;2.92;;;20.80;99.90;;;;;;4994986;28;20550;-66
2022/03/02 01:31:03;;;;;;;16.48;2.65;;;20.90;99.90;;;;;;4988660;28;20091;-66
2022/03/02 01:33:31;;;;;;;14.68;2.03;;;21.00;99.90;;;;;;4991917;28;20038;-66
2022/03/02 01:35:58;;;;;;;14.60;2.28;;;21.00;99.90;;;;;;4993261;28;20034;-66
2022/03/02 01:38:27;;;;;;;16.90;2.80;;;21.10;99.90;;;;;;4990705;28;20033;-66
2022/03/02 01:40:56;;;;;;;16.70;2.17;;;21.10;99.90;;;;;;4985648;28;20042;-66
2022/03/02 01:43:27;;;;;;;20.00;3.25;;;21.10;99.90;;;;;;4992471;28;20376;-66
2022/03/02 01:45:56;;;;;;;19.02;3.28;;;21.10;99.90;;;;;;5014101;23;20058;-65
2022/03/02 01:48:25;;;;;;;23.55;3.30;;;21.20;99.90;;;;;;5031729;28;20029;-65
2022/03/02 01:50:54;;;;;;;16.55;3.58;;;21.10;99.90;;;;;;5007411;28;20041;-66
2022/03/02 01:53:22;;;;;;;16.25;2.72;;;21.20;99.90;;;;;;5038666;28;20116;-66
2022/03/02 01:55:51;;;;;;;26.05;3.78;;;21.20;99.90;;;;;;5031394;28;20029;-66
2022/03/02 01:58:19;;;;;;;15.57;3.83;;;21.20;99.90;;;;;;5031661;28;20030;-66
2022/03/02 02:00:47;;;;;;;16.20;3.72;;;21.20;99.90;;;;;;5035883;28;20029;-66
2022/03/02 02:03:15;;;;;;;18.58;3.60;;;21.20;99.90;;;;;;5030721;28;20029;-66
2022/03/02 02:05:43;;;;;;;19.80;2.85;;;21.20;99.90;;;;;;5035679;28;20028;-66
2022/03/02 02:08:11;;;;;;;17.27;2.90;;;21.30;99.90;;;;;;5024186;28;20030;-66
2022/03/02 02:10:39;;;;;;;21.52;3.10;;;21.20;99.90;;;;;;5029671;28;20032;-66
2022/03/02 02:13:07;;;;;;;22.38;4.07;;;21.20;99.90;;;;;;5030758;28;20384;-66
2022/03/02 02:15:36;;;;;;;15.23;2.88;;;21.10;99.90;;;;;;5022325;28;20037;-66
2022/03/02 02:18:05;;;;;;;16.02;2.40;;;21.20;99.90;;;;;;5033226;28;20040;-66
2022/03/02 02:20:49;;;;;;;17.88;3.50;;;21.20;99.90;;;;;;5014167;28;20049;-65
2022/03/02 02:23:50;;;;;;;18.83;2.45;;;21.30;99.90;;;;;;5013626;28;20057;-65
2022/03/02 02:26:27;;;;;;;25.08;3.50;;;21.40;99.90;;;;;;5045496;28;20485;-66
2022/03/02 02:28:57;;;;;;;24.67;4.47;;;21.60;99.90;;;;;;5048157;28;20029;-65
2022/03/02 02:31:28;;;;;;;16.40;3.58;;;21.60;99.90;;;;;;5046666;28;20069;-65
2022/03/02 02:33:57;;;;;;;18.42;3.58;;;21.60;99.90;;;;;;5045733;28;20036;-63
2022/03/02 02:36:26;;;;;;;12.35;1.88;;;21.40;99.90;;;;;;5034687;28;20025;-63
2022/03/02 02:39:05;;;;;;;21.23;2.67;;;21.10;99.90;;;;;;5038742;28;20029;-65
2022/03/02 02:41:34;;;;;;;14.00;2.13;;;21.20;99.90;;;;;;5041673;28;20477;-65
2022/03/02 02:44:02;;;;;;;15.30;2.05;;;21.20;99.90;;;;;;5044197;28;20036;-64
2022/03/02 02:46:29;;;;;;;8.35;1.23;;;21.20;99.90;;;;;;4996183;28;20049;-64
2022/03/02 02:48:57;;;;;;;8.98;1.25;;;21.30;99.90;;;;;;5001109;28;20409;-64
2022/03/02 02:51:27;;;;;;;13.70;1.77;;;21.50;99.90;;;;;;4997172;28;20442;-64
2022/03/02 02:53:54;;;;;;;9.68;1.42;;;21.30;99.90;;;;;;5001923;28;20061;-65
2022/03/02 02:56:22;;;;;;;14.57;1.63;;;21.30;99.90;;;;;;4996582;28;20636;-65
2022/03/02 02:58:49;;;;;;;11.52;2.55;;;21.30;99.90;;;;;;4995887;28;20018;-65
2022/03/02 03:01:17;;;;;;;10.55;1.02;;;21.10;99.90;;;;;;4987331;28;20023;-64
2022/03/02 03:03:44;;;;;;;12.93;1.60;;;21.00;99.90;;;;;;4991696;28;20398;-65
2022/03/02 03:06:11;;;;;;;11.15;1.92;;;21.00;99.90;;;;;;5000167;28;20553;-64
2022/03/02 03:08:39;;;;;;;11.43;1.80;;;21.00;99.90;;;;;;4996011;28;20027;-64
2022/03/02 03:11:06;;;;;;;17.00;1.88;;;21.00;99.90;;;;;;5000714;28;20622;-64
2022/03/02 03:13:33;;;;;;;15.60;2.80;;;20.90;99.90;;;;;;4990195;28;20031;-65
2022/03/02 03:16:01;;;;;;;16.00;2.72;;;20.90;99.90;;;;;;4991282;28;20177;-65
2022/03/02 03:18:28;;;;;;;19.50;3.60;;;21.00;99.90;;;;;;4996618;28;20022;-65
2022/03/02 03:20:55;;;;;;;20.48;4.45;;;21.00;99.90;;;;;;4996055;28;20026;-65
2022/03/02 03:23:23;;;;;;;26.38;3.97;;;21.00;99.90;;;;;;4997301;28;20030;-64
2022/03/02 03:25:51;;;;;;;16.15;3.13;;;20.90;99.90;;;;;;4998557;28;20101;-65
2022/03/02 03:28:18;;;;;;;7.57;2.13;;;21.00;99.90;;;;;;4996104;28;20031;-65
2022/03/02 03:30:46;;;;;;;14.45;2.47;;;21.00;99.90;;;;;;4997933;28;20088;-64
2022/03/02 03:33:13;;;;;;;15.30;2.58;;;20.90;99.90;;;;;;4996161;28;20037;-65
2022/03/02 03:35:40;;;;;;;11.77;1.88;;;20.80;99.90;;;;;;4998040;28;20478;-64
2022/03/02 03:38:08;;;;;;;17.25;3.15;;;20.90;99.90;;;;;;4997545;28;20022;-65
2022/03/02 03:40:35;;;;;;;15.48;2.58;;;20.90;99.90;;;;;;5007782;28;20061;-65
2022/03/02 03:43:03;;;;;;;25.00;4.00;;;20.90;99.90;;;;;;4997149;28;20395;-65
2022/03/02 03:45:30;;;;;;;22.63;4.35;;;20.90;99.90;;;;;;5019178;28;20046;-65
2022/03/02 03:47:58;;;;;;;16.90;3.10;;;20.80;99.90;;;;;;5017672;28;20056;-64
2022/03/02 03:50:25;;;;;;;24.45;4.28;;;20.90;99.90;;;;;;5034908;28;20497;-64
2022/03/02 03:52:53;;;;;;;14.68;2.53;;;21.00;99.90;;;;;;5014831;28;20045;-65
2022/03/02 03:55:21;;;;;;;23.23;3.78;;;20.90;99.90;;;;;;5037846;28;20104;-65
2022/03/02 03:57:48;;;;;;;23.67;4.57;;;20.90;99.90;;;;;;5038581;28;20044;-65
2022/03/02 04:00:18;;;;;;;24.88;4.05;;;20.90;99.90;;;;;;5029391;28;20400;-65
2022/03/02 04:02:46;;;;;;;23.55;4.18;;;20.90;99.90;;;;;;5021720;28;20105;-65
2022/03/02 04:05:14;;;;;;;21.95;3.75;;;21.00;99.90;;;;;;5028845;28;20125;-65
2022/03/02 04:07:41;;;;;;;24.35;3.85;;;20.90;99.90;;;;;;5029943;28;20410;-65
2022/03/02 04:10:09;;;;;;;23.08;3.40;;;20.90;99.90;;;;;;5032280;28;20029;-65
2022/03/02 04:12:37;;;;;;;20.02;3.63;;;20.80;99.90;;;;;;5033193;28;20057;-65
2022/03/02 04:15:05;;;;;;;24.10;3.67;;;20.90;99.90;;;;;;5022993;28;20038;-65
2022/03/02 04:17:33;;;;;;;15.73;3.40;;;20.80;99.90;;;;;;5033977;28;20109;-65
2022/03/02 04:20:00;;;;;;;21.92;3.28;;;20.90;99.90;;;;;;5032288;28;20026;-65
2022/03/02 04:22:28;;;;;;;23.52;4.25;;;20.90;99.90;;;;;;5031987;28;20056;-65
2022/03/02 04:24:55;;;;;;;23.75;4.65;;;20.80;99.90;;;;;;5031906;28;20401;-65
2022/03/02 04:27:22;;;;;;;20.90;3.17;;;20.70;99.90;;;;;;5009140;28;20045;-65
2022/03/02 04:29:50;;;;;;;21.45;3.80;;;20.80;99.90;;;;;;5009449;28;20042;-65
2022/03/02 04:32:17;;;;;;;19.63;4.07;;;20.80;99.90;;;;;;5034262;28;20148;-65
2022/03/02 04:34:44;;;;;;;18.52;4.72;;;20.80;99.90;;;;;;5030114;28;20021;-65
2022/03/02 04:37:12;;;;;;;21.83;4.07;;;20.80;99.90;;;;;;5031525;28;20097;-64
2022/03/02 04:39:40;;;;;;;24.45;3.75;;;20.80;99.90;;;;;;5035031;28;20029;-65
2022/03/02 04:42:07;;;;;;;18.90;3.20;;;20.80;99.90;;;;;;5033384;28;20093;-65
2022/03/02 04:44:34;;;;;;;28.08;4.13;;;20.90;99.90;;;;;;5036556;28;20049;-64
2022/03/02 04:47:02;;;;;;;21.52;3.78;;;20.90;99.90;;;;;;5035894;28;20028;-65
2022/03/02 04:49:31;;;;;;;24.38;4.32;;;20.80;99.90;;;;;;5035706;28;20017;-65
2022/03/02 04:51:58;;;;;;;35.40;4.97;;;20.70;99.90;;;;;;5026596;28;20033;-65
2022/03/02 04:57:11;;;;;;;26.02;3.50;;;20.60;99.90;;;;;;5036330;28;20047;-65
2022/03/02 04:59:38;;;;;;;25.75;3.60;;;20.60;99.90;;;;;;5031640;28;20410;-64
2022/03/02 05:02:06;;;;;;;20.40;3.83;;;20.60;99.90;;;;;;5033005;28;20121;-65
2022/03/02 05:04:34;;;;;;;25.90;3.40;;;20.60;99.90;;;;;;5025808;28;20048;-65
2022/03/02 05:07:01;;;;;;;21.15;2.95;;;20.50;99.90;;;;;;5028666;28;20501;-65
2022/03/02 05:09:28;;;;;;;12.15;2.67;;;20.30;99.90;;;;;;5038767;28;20025;-65
2022/03/02 05:11:55;;;;;;;12.80;2.00;;;20.30;99.90;;;;;;5038461;28;20117;-65
2022/03/02 05:14:23;;;;;;;14.32;2.50;;;20.30;99.90;;;;;;5036064;28;20371;-65
2022/03/02 05:16:50;;;;;;;17.02;2.95;;;20.30;99.90;;;;;;5038392;28;20029;-65
2022/03/02 05:19:17;;;;;;;17.48;3.38;;;20.30;99.90;;;;;;5030149;28;20503;-64
2022/03/02 05:21:45;;;;;;;24.00;3.45;;;20.40;99.90;;;;;;5048546;28;20056;-64
2022/03/02 05:24:12;;;;;;;15.95;2.47;;;20.50;99.90;;;;;;5028422;28;20043;-64
2022/03/02 05:26:39;;;;;;;16.00;2.45;;;20.50;99.90;;;;;;5044138;28;20485;-64
2022/03/02 05:29:07;;;;;;;19.60;3.33;;;20.50;99.90;;;;;;5043335;28;20052;-64
2022/03/02 05:31:35;;;;;;;18.48;3.33;;;20.50;99.90;;;;;;5043467;28;20046;-64
2022/03/02 05:34:02;;;;;;;16.50;2.40;;;20.50;99.90;;;;;;5048056;28;20090;-64
2022/03/02 05:36:30;;;;;;;14.18;2.78;;;20.50;99.90;;;;;;5047390;28;20025;-64
2022/03/02 05:38:57;;;;;;;26.88;3.53;;;20.50;99.90;;;;;;5050407;28;20087;-64
2022/03/02 05:41:25;;;;;;;16.20;2.13;;;20.50;99.90;;;;;;5037798;28;20029;-64
2022/03/02 05:43:53;;;;;;;14.35;2.53;;;20.60;99.90;;;;;;5042188;28;20022;-64
2022/03/02 05:46:20;;;;;;;22.55;3.60;;;20.60;99.90;;;;;;5031971;28;20080;-64
2022/03/02 05:48:49;;;;;;;19.27;4.05;;;20.60;99.90;;;;;;5033264;28;20033;-65
2022/03/02 05:51:17;;;;;;;20.33;4.35;;;20.50;99.90;;;;;;5050932;28;20037;-64
2022/03/02 05:53:44;;;;;;;17.33;3.45;;;20.50;99.90;;;;;;5039530;28;20033;-64
2022/03/02 05:56:12;;;;;;;26.60;4.47;;;20.50;99.90;;;;;;5032831;28;20536;-64
2022/03/02 05:58:39;;;;;;;20.55;3.80;;;20.50;99.90;;;;;;5053440;28;20037;-64
2022/03/02 06:01:07;;;;;;;20.02;3.97;;;20.50;99.90;;;;;;5039556;28;20021;-64
2022/03/02 06:03:34;;;;;;;20.63;3.70;;;20.60;99.90;;;;;;5044158;28;20020;-64
2022/03/02 06:06:01;;;;;;;22.95;3.97;;;20.60;99.90;;;;;;5058622;28;20037;-64
2022/03/02 06:08:28;;;;;;;28.30;4.95;;;20.60;99.90;;;;;;5052765;28;20026;-64
2022/03/02 06:10:56;;;;;;;31.45;4.88;;;20.70;99.90;;;;;;5052830;28;20033;-64
2022/03/02 06:13:24;;;;;;;16.98;3.17;;;20.60;99.90;;;;;;5056925;28;20060;-64
2022/03/02 06:15:51;;;;;;;32.40;4.53;;;20.60;99.90;;;;;;5050874;28;20045;-64
2022/03/02 06:18:19;;;;;;;25.00;4.82;;;20.70;99.90;;;;;;5055624;28;20044;-64
2022/03/02 06:20:52;;;;;;;31.00;4.22;;;20.70;99.90;;;;;;5053079;28;20040;-64
2022/03/02 06:23:20;;;;;;;24.15;4.75;;;20.80;99.90;;;;;;5051182;28;20014;-64
2022/03/02 06:25:48;;;;;;;30.65;5.22;;;20.80;99.90;;;;;;5037911;28;20032;-64
2022/03/02 06:28:15;;;;;;;23.48;4.32;;;20.80;99.90;;;;;;5037550;28;20038;-64
2022/03/02 06:30:43;;;;;;;24.38;4.80;;;20.80;99.90;;;;;;5047753;28;20069;-64
2022/03/02 06:33:12;;;;;;;19.30;4.38;;;20.80;99.90;;;;;;5047815;28;20037;-64
2022/03/02 06:35:40;;;;;;;22.90;5.10;;;20.80;99.90;;;;;;5050042;28;20097;-64
2022/03/02 06:38:07;;;;;;;26.67;6.20;;;20.80;99.90;;;;;;5058109;28;20052;-64
2022/03/02 06:40:34;;;;;;;18.48;3.65;;;20.80;99.90;;;;;;5046681;28;20021;-64
2022/03/02 06:43:14;;;;;;;27.58;4.93;;;20.90;99.90;;;;;;5046322;28;20033;-64
2022/03/02 06:46:02;;;;;;;20.13;3.33;;;20.90;99.90;;;;;;5051283;28;20064;-64
2022/03/02 06:48:43;;;;;;;20.85;3.78;;;21.00;99.90;;;;;;5043777;28;20049;-64
2022/03/02 06:51:14;;;;;;;18.60;3.20;;;21.00;99.90;;;;;;5045198;28;20029;-65
2022/03/02 06:53:45;;;;;;;27.67;3.70;;;21.00;99.90;;;;;;5054854;28;20022;-64
2022/03/02 06:56:12;;;;;;;27.08;5.82;;;21.10;99.90;;;;;;5052991;28;20121;-65
2022/03/02 06:58:54;;;;;;;24.13;3.45;;;21.10;99.90;;;;;;5052286;28;20037;-65
2022/03/02 07:01:33;;;;;;;33.60;10.98;;;21.10;99.90;;;;;;5037399;28;20555;-64
2022/03/02 07:04:01;;;;;;;44.42;28.80;;;21.10;99.90;;;;;;5043432;28;20029;-64
2022/03/02 07:06:30;;;;;;;21.83;4.25;;;21.10;99.90;;;;;;5052710;28;20017;-64
2022/03/02 07:08:57;;;;;;;33.70;4.45;;;21.10;99.90;;;;;;5056525;28;20086;-64
2022/03/02 07:11:25;;;;;;;16.92;3.80;;;21.10;99.90;;;;;;5054755;28;20045;-64
2022/03/02 07:13:52;;;;;;;23.38;4.75;;;21.10;99.90;;;;;;5042780;28;20069;-65
2022/03/02 07:16:21;;;;;;;26.83;3.80;;;21.10;99.90;;;;;;5049385;28;20075;-64
2022/03/02 07:18:51;;;;;;;32.92;9.52;;;21.10;99.90;;;;;;5049165;28;20074;-64
2022/03/02 07:21:21;;;;;;;38.38;19.20;;;21.10;99.90;;;;;;5050800;28;20046;-64
2022/03/02 07:23:55;;;;;;;28.38;12.40;;;21.10;99.90;;;;;;5049944;28;20030;-64
2022/03/02 07:26:23;;;;;;;;;;;21.10;99.90;;;;;;5051032;28;20052;-65
2022/03/02 07:28:50;;;;;;;22.88;5.93;;;21.10;99.90;;;;;;5048384;28;19913;-65
2022/03/02 07:31:21;;;;;;;20.55;4.10;;;21.10;99.90;;;;;;5058353;28;20109;-64
2022/03/02 07:33:50;;;;;;;20.05;4.30;;;21.00;99.90;;;;;;5056478;28;20026;-65
2022/03/02 07:36:20;;;;;;;17.17;3.65;;;20.90;99.90;;;;;;5054186;28;20030;-65
2022/03/02 07:38:48;;;;;;;27.67;4.88;;;20.80;99.90;;;;;;5052724;28;20030;-65
2022/03/02 07:41:15;;;;;;;21.92;4.78;;;20.60;99.90;;;;;;5032616;22;20033;-66
2022/03/02 07:43:43;;;;;;;24.42;6.18;;;20.70;99.90;;;;;;5046441;28;20088;-66
2022/03/02 07:46:12;;;;;;;26.90;4.82;;;20.70;99.90;;;;;;5050083;28;20045;-65
2022/03/02 07:48:40;;;;;;;25.08;4.22;;;20.70;99.90;;;;;;5030414;28;20005;-65
2022/03/02 07:51:09;;;;;;;22.60;3.30;;;20.70;99.90;;;;;;5029466;28;20038;-64
2022/03/02 07:53:45;;;;;;;20.17;2.30;;;20.50;99.90;;;;;;5031487;28;20018;-64
2022/03/02 07:56:14;;;;;;;10.60;1.98;;;20.50;99.90;;;;;;5035439;28;20090;-64
2022/03/02 07:58:42;;;;;;;13.43;2.63;;;20.30;99.90;;;;;;5021316;28;20026;-64
2022/03/02 08:01:14;;;;;;;21.75;3.22;;;20.30;99.90;;;;;;5039254;28;20065;-64
2022/03/02 08:03:44;;;;;;;18.90;3.70;;;20.30;99.90;;;;;;5040436;28;20029;-65
2022/03/02 08:06:12;;;;;;;23.17;3.65;;;20.30;99.90;;;;;;5046834;28;20026;-65
2022/03/02 08:08:40;;;;;;;22.65;3.88;;;20.40;99.90;;;;;;5046143;28;20029;-64
2022/03/02 08:11:07;;;;;;;13.05;2.72;;;20.40;99.90;;;;;;5045032;28;20094;-65
2022/03/02 08:13:36;;;;;;;18.00;2.35;;;20.50;99.90;;;;;;5018703;28;20029;-64
2022/03/02 08:16:04;;;;;;;19.35;3.10;;;20.50;99.90;;;;;;5035651;28;20030;-65
2022/03/02 08:18:31;;;;;;;19.73;3.83;;;20.60;99.90;;;;;;5033595;28;20105;-65
2022/03/02 08:21:00;;;;;;;15.13;3.10;;;20.60;99.90;;;;;;5036487;28;20224;-64
2022/03/02 08:23:36;;;;;;;11.00;2.17;;;20.60;99.90;;;;;;5021097;28;20032;-64
2022/03/02 08:26:05;;;;;;;8.23;1.90;;;20.30;99.90;;;;;;5033940;28;20090;-64
2022/03/02 08:28:36;;;;;;;6.55;1.27;;;20.30;99.90;;;;;;5021467;28;20037;-65
2022/03/02 08:31:03;;;;;;;11.65;1.40;;;20.00;99.90;;;;;;5047696;28;20089;-65
2022/03/02 08:33:34;;;;;;;8.77;1.58;;;20.00;99.90;;;;;;5041179;28;20026;-64
2022/03/02 08:36:02;;;;;;;11.10;2.15;;;19.90;99.90;;;;;;5035643;28;20021;-65
2022/03/02 08:38:30;;;;;;;10.75;2.10;;;20.00;99.90;;;;;;5035096;28;20017;-65
2022/03/02 08:40:57;;;;;;;17.85;2.45;;;19.90;99.90;;;;;;5034653;28;20006;-65
2022/03/02 08:43:24;;;;;;;15.02;2.53;;;19.90;99.90;;;;;;5035801;28;20077;-65
2022/03/02 08:45:52;;;;;;;16.88;3.25;;;19.90;99.90;;;;;;5034150;28;20029;-64
2022/03/02 08:48:21;;;;;;;14.50;2.63;;;20.00;99.90;;;;;;5032313;28;20030;-64
2022/03/02 08:50:51;;;;;;;16.25;2.72;;;20.10;99.90;;;;;;5032142;28;20069;-64
2022/03/02 08:53:19;;;;;;;23.17;2.88;;;20.10;99.90;;;;;;5053199;28;20042;-65
2022/03/02 08:55:48;;;;;;;18.00;3.30;;;20.10;99.90;;;;;;5035180;28;20038;-64
2022/03/02 08:58:16;;;;;;;18.45;2.58;;;20.10;99.90;;;;;;5037386;28;20014;-64
2022/03/02 09:00:43;;;;;;;21.65;3.42;;;20.10;99.90;;;;;;5020631;28;20034;-64
2022/03/02 09:03:15;;;;;;;20.65;3.78;;;20.10;99.90;;;;;;5053052;28;20033;-64
2022/03/02 09:05:43;;;;;;;17.00;2.35;;;20.10;99.90;;;;;;5037251;28;20102;-64
2022/03/02 09:08:10;;;;;;;12.55;1.92;;;20.00;99.90;;;;;;5036450;28;20041;-64
2022/03/02 09:10:37;;;;;;;17.70;2.55;;;19.90;99.90;;;;;;5028118;28;20097;-64
2022/03/02 09:13:05;;;;;;;15.85;2.75;;;19.90;99.90;;;;;;5028481;28;20022;-65
2022/03/02 09:15:34;;;;;;;16.92;3.72;;;19.80;99.90;;;;;;5035483;28;20778;-65
2022/03/02 09:18:02;;;;;;;15.73;2.22;;;19.80;99.90;;;;;;5029017;28;20033;-65
2022/03/02 09:20:30;;;;;;;22.52;3.20;;;19.90;99.90;;;;;;5034532;28;20002;-65
2022/03/02 09:23:01;;;;;;;20.52;4.93;;;19.90;99.90;;;;;;5034335;28;20017;-65
2022/03/02 09:25:30;;;;;;;23.23;4.20;;;20.00;99.90;;;;;;5035962;28;20018;-65
2022/03/02 09:27:57;;;;;;;21.27;3.45;;;20.10;99.90;;;;;;5035224;28;20033;-65
2022/03/02 09:30:25;;;;;;;25.67;4.78;;;20.20;99.90;;;;;;5035589;28;20083;-65
2022/03/02 09:32:54;;;;;;;23.92;3.03;;;20.20;99.90;;;;;;5034836;28;20018;-65
2022/03/02 09:35:22;;;;;;;29.95;5.00;;;20.20;99.90;;;;;;5036090;28;20033;-65
2022/03/02 09:37:53;;;;;;;29.67;4.80;;;20.20;99.90;;;;;;5034466;28;20082;-65
2022/03/02 09:40:30;;;;;;;32.75;4.93;;;20.30;99.90;;;;;;5030792;28;20031;-65
2022/03/02 09:43:00;;;;;;;27.08;4.72;;;20.20;99.90;;;;;;5024843;28;20080;-66
2022/03/02 09:45:30;;;;;;;30.52;4.20;;;20.20;99.90;;;;;;5035919;28;20034;-65
2022/03/02 09:48:00;;;;;;;21.17;4.15;;;20.30;99.90;;;;;;5035649;28;20025;-65
2022/03/02 09:50:34;;;;;;;26.83;4.13;;;20.30;99.90;;;;;;5037023;28;20053;-65
2022/03/02 09:53:12;;;;;;;32.45;4.60;;;20.30;99.90;;;;;;5019959;28;20040;-65
2022/03/02 09:55:41;;;;;;;32.83;5.30;;;20.30;99.90;;;;;;5027890;28;20037;-65
2022/03/02 09:58:11;;;;;;;32.00;4.60;;;20.30;99.90;;;;;;5027416;28;20006;-65
2022/03/02 10:00:39;;;;;;;32.55;5.53;;;20.30;99.90;;;;;;5033562;28;20177;-65
2022/03/02 10:03:11;;;;;;;29.30;5.25;;;20.30;99.90;;;;;;5037429;28;20069;-65
2022/03/02 10:05:44;;;;;;;33.72;5.03;;;20.40;99.90;;;;;;5036412;28;20014;-64
2022/03/02 10:08:11;;;;;;;29.10;4.85;;;20.40;99.90;;;;;;5030363;28;20006;-64
2022/03/02 10:10:41;;;;;;;31.20;5.88;;;20.40;99.90;;;;;;5016977;28;20026;-65
2022/03/02 10:13:12;;;;;;;35.67;5.60;;;20.40;99.90;;;;;;5035571;28;20018;-65
2022/03/02 10:15:41;;;;;;;40.67;6.68;;;20.40;99.90;;;;;;5025756;28;20123;-65
2022/03/02 10:18:11;;;;;;;32.47;5.57;;;20.50;99.90;;;;;;5023014;28;20081;-65
2022/03/02 10:20:49;;;;;;;35.30;5.90;;;20.50;99.90;;;;;;5037232;28;20018;-65
2022/03/02 10:23:41;;;;;;;36.72;5.85;;;20.50;99.90;;;;;;5036927;28;20018;-65
2022/03/02 10:26:19;;;;;;;41.63;6.28;;;20.50;99.90;;;;;;5036418;28;20022;-65
2022/03/02 10:29:04;;;;;;;50.38;8.23;;;20.50;99.90;;;;;;5020509;28;20037;-65
2022/03/02 10:31:43;;;;;;;36.25;6.07;;;20.50;99.90;;;;;;5036232;28;20089;-65
2022/03/02 10:34:37;;;;;;;33.10;5.85;;;20.50;99.90;;;;;;5037363;28;20106;-64
2022/03/02 10:37:30;;;;;;;36.20;6.40;;;20.60;99.90;;;;;;5034924;28;20029;-64
2022/03/02 10:40:06;;;;;;;38.10;5.93;;;20.60;99.90;;;;;;5005542;28;20030;-65
2022/03/02 10:42:37;;;;;;;30.65;4.30;;;20.50;99.90;;;;;;5038960;28;20061;-65
2022/03/02 10:45:04;;;;;;;36.58;6.60;;;20.40;99.90;;;;;;5041212;28;20070;-65
2022/03/02 10:47:34;;;;;;;38.53;6.38;;;20.50;99.90;;;;;;5030109;28;20010;-65
2022/03/02 10:50:04;;;;;;;39.10;5.88;;;20.50;99.90;;;;;;5038769;28;20024;-65
2022/03/02 10:52:36;;;;;;;32.47;5.43;;;20.50;99.90;;;;;;5032802;28;20069;-66
2022/03/02 10:55:10;;;;;;;35.63;6.43;;;20.50;99.90;;;;;;5036072;28;20032;-66
2022/03/02 10:57:39;;;;;;;37.38;5.47;;;20.50;99.90;;;;;;5042939;28;20030;-66
2022/03/02 11:00:17;;;;;;;38.83;6.47;;;20.50;99.90;;;;;;5027561;28;20029;-66
2022/03/02 11:02:46;;;;;;;32.45;4.82;;;20.50;99.90;;;;;;5012799;28;20068;-66
2022/03/02 11:05:16;;;;;;;31.45;5.63;;;20.50;99.90;;;;;;5036898;28;20006;-66
2022/03/02 11:07:44;;;;;;;31.48;5.63;;;20.40;99.90;;;;;;5027945;28;20046;-64
2022/03/02 11:10:16;;;;;;;30.42;4.78;;;20.40;99.90;;;;;;5034660;28;20071;-65
2022/03/02 11:12:45;;;;;;;27.48;5.05;;;20.40;99.90;;;;;;5041213;28;20017;-65
2022/03/02 11:15:15;;;;;;;25.90;4.97;;;20.40;99.90;;;;;;5053613;28;20022;-65
2022/03/02 11:17:58;;;;;;;36.67;5.55;;;20.40;99.90;;;;;;5049643;28;20021;-66
2022/03/02 11:20:29;;;;;;;35.20;6.10;;;20.50;99.90;;;;;;5043067;28;20308;-66
2022/03/02 11:23:06;;;;;;;38.70;7.38;;;20.50;99.90;;;;;;5036821;28;20038;-65
2022/03/02 11:25:49;;;;;;;35.55;5.80;;;20.60;99.90;;;;;;5053461;28;20017;-65
2022/03/02 11:28:23;;;;;;;35.50;6.88;;;20.70;99.90;;;;;;5048016;28;20041;-65
2022/03/02 11:30:56;;;;;;;37.70;5.97;;;20.70;99.90;;;;;;5039104;28;20030;-65
2022/03/02 11:33:29;;;;;;;35.50;6.20;;;20.80;99.90;;;;;;5029269;28;20027;-66
2022/03/02 11:36:00;;;;;;;39.42;7.60;;;20.80;99.90;;;;;;5032399;28;20037;-66
2022/03/02 11:38:32;;;;;;;36.47;5.75;;;20.80;99.90;;;;;;5038675;28;20029;-65
2022/03/02 11:41:01;;;;;;;37.25;6.30;;;20.90;99.90;;;;;;5038361;28;20022;-66
2022/03/02 11:43:31;;;;;;;37.80;6.22;;;20.80;99.90;;;;;;5057903;28;20033;-65
2022/03/02 11:46:08;;;;;;;33.80;5.40;;;20.80;99.90;;;;;;5041333;28;20025;-66
2022/03/02 11:48:43;;;;;;;33.90;5.53;;;20.90;99.90;;;;;;5046972;28;20018;-66
2022/03/02 11:51:14;;;;;;;36.35;6.57;;;20.80;99.90;;;;;;5046241;28;20578;-66
2022/03/02 11:53:43;;;;;;;40.65;7.43;;;20.90;99.90;;;;;;5034865;28;20010;-66
2022/03/02 11:56:16;;;;;;;32.85;5.15;;;20.80;99.90;;;;;;5038766;28;20034;-66
2022/03/02 11:59:01;;;;;;;43.92;6.35;;;20.80;99.90;;;;;;5039130;28;20041;-66
2022/03/02 12:01:40;;;;;;;35.75;6.93;;;20.90;99.90;;;;;;5046320;28;20014;-66
2022/03/02 12:04:08;;;;;;;34.45;5.47;;;20.90;99.90;;;;;;5023945;28;20018;-66
2022/03/02 12:06:57;;;;;;;41.67;5.68;;;20.80;99.90;;;;;;5031515;28;20013;-65
2022/03/02 12:09:25;;;;;;;45.80;7.07;;;20.80;99.90;;;;;;5034182;28;20094;-66
2022/03/02 12:12:05;;;;;;;41.05;5.50;;;20.80;99.90;;;;;;5040546;28;20056;-66
2022/03/02 12:14:42;;;;;;;29.00;5.30;;;20.80;99.90;;;;;;5041023;28;20010;-66
2022/03/02 12:17:36;;;;;;;31.15;6.28;;;20.80;99.90;;;;;;5031248;28;20018;-66
2022/03/02 12:20:12;;;;;;;30.90;5.77;;;20.80;99.90;;;;;;5021242;28;20030;-66
2022/03/02 12:22:42;;;;;;;26.38;5.32;;;20.70;99.90;;;;;;5036288;28;20018;-66
2022/03/02 12:25:13;;;;;;;41.35;7.30;;;20.70;99.90;;;;;;5033099;28;20026;-66
2022/03/02 12:27:42;;;;;;;38.50;7.20;;;20.70;99.90;;;;;;5042832;28;20029;-66
2022/03/02 12:30:12;;;;;;;39.53;7.03;;;20.80;99.90;;;;;;5032538;28;20018;-66
2022/03/02 12:32:45;;;;;;;32.50;6.63;;;20.80;99.90;;;;;;5029622;28;20048;-66
2022/03/02 12:35:13;;;;;;;39.17;6.55;;;20.90;99.90;;;;;;5030073;28;20125;-66
2022/03/02 12:37:40;;;;;;;24.73;5.05;;;20.90;99.90;;;;;;5039420;28;20037;-65
2022/03/02 12:40:11;;;;;;;35.15;6.20;;;20.90;99.90;;;;;;5031430;28;20105;-66
2022/03/02 12:42:43;;;;;;;35.17;5.07;;;20.80;99.90;;;;;;5031634;28;20050;-66
2022/03/02 12:45:12;;;;;;;34.33;6.20;;;20.80;99.90;;;;;;5026453;28;20125;-66
2022/03/02 12:47:40;;;;;;;33.22;6.00;;;20.80;99.90;;;;;;5041881;28;20026;-66
2022/03/02 12:50:10;;;;;;;32.13;5.20;;;20.80;99.90;;;;;;5013085;28;20034;-66
2022/03/02 12:52:39;;;;;;;35.38;5.35;;;20.80;99.90;;;;;;5027720;28;20106;-66
2022/03/02 12:55:08;;;;;;;27.13;5.50;;;20.80;99.90;;;;;;5029239;28;20033;-66